Time;durP1;ratioP1;P1;durP2;ratioP2;P2;SDS_P1;SDS_P2;PMS_P1;PMS_P2;Temp;Humidity;BMP_temperature;BMP_pressure;BME280_temperature;BME280_humidity;BME280_pressure;Samples;Min_cycle;Max_cycle;Signal;HPM_P1;HPM_P2
2022/01/30 00:00:33;;;;;;;3.67;3.17;;;;;;;4.91;71.23;100271.34;4961569;28;20240;-66
2022/01/30 00:03:01;;;;;;;3.83;3.40;;;;;;;3.53;76.23;100280.13;4977326;28;20233;-65
2022/01/30 00:05:30;;;;;;;3.13;2.90;;;;;;;2.62;79.08;100295.31;4984286;28;20225;-68
2022/01/30 00:07:57;;;;;;;3.50;3.20;;;;;;;3.92;74.19;100241.97;4970881;28;20239;-67
2022/01/30 00:10:24;;;;;;;3.20;2.90;;;;;;;3.51;75.74;100260.94;4954633;28;20254;-67
2022/01/30 00:12:55;;;;;;;4.57;3.00;;;;;;;3.02;77.45;100273.22;4964034;28;20231;-67
2022/01/30 00:20:44;;;;;;;4.00;3.60;;;;;;;4.40;72.29;100229.53;4968817;28;20318;-67
2022/01/30 00:23:24;;;;;;;3.90;3.07;;;;;;;4.31;72.93;100239.03;4966779;28;20273;-67
2022/01/30 00:25:54;;;;;;;4.10;3.70;;;;;;;4.40;72.83;100224.25;4968199;28;20237;-69
2022/01/30 00:28:24;;;;;;;4.30;3.17;;;;;;;5.07;70.96;100231.28;4968443;28;20230;-67
2022/01/30 00:30:54;;;;;;;4.13;3.40;;;;;;;5.07;70.94;100228.66;4967968;28;20246;-66
2022/01/30 00:33:21;;;;;;;3.90;3.50;;;;;;;5.15;70.92;100222.75;4968187;28;20227;-67
2022/01/30 00:35:48;;;;;;;3.30;3.00;;;;;;;5.04;70.46;100213.03;4968950;28;20303;-68
2022/01/30 00:38:18;;;;;;;3.73;3.43;;;;;;;5.09;71.14;100229.34;4968577;28;20727;-68
2022/01/30 00:40:46;;;;;;;4.67;3.10;;;;;;;5.21;70.74;100225.72;5001353;23;20873;-66
2022/01/30 00:43:13;;;;;;;3.90;3.20;;;;;;;4.99;70.59;100197.56;5003758;28;20236;-66
2022/01/30 00:45:41;;;;;;;4.07;2.80;;;;;;;5.28;70.29;100221.59;5001383;28;20248;-67
2022/01/30 00:48:08;;;;;;;4.00;2.90;;;;;;;5.48;69.95;100237.66;4988310;28;20580;-66
2022/01/30 00:50:36;;;;;;;3.23;2.90;;;;;;;5.43;70.14;100226.63;4988694;28;20271;-66
2022/01/30 00:53:04;;;;;;;3.40;3.10;;;;;;;5.19;70.68;100203.88;4988243;28;20234;-67
2022/01/30 00:55:31;;;;;;;3.60;3.20;;;;;;;5.33;70.97;100225.66;4983541;28;20222;-66
2022/01/30 00:57:59;;;;;;;3.37;3.07;;;;;;;5.31;71.91;100240.84;4988758;28;20225;-67
2022/01/30 01:00:27;;;;;;;3.20;2.90;;;;;;;5.09;71.27;100208.19;4987861;28;20610;-66
2022/01/30 01:02:54;;;;;;;3.43;3.07;;;;;;;4.94;72.08;100209.44;4985745;28;20221;-65
2022/01/30 01:05:21;;;;;;;4.50;3.50;;;;;;;5.57;70.30;100225.47;5006197;28;20229;-66
2022/01/30 01:07:50;;;;;;;3.00;2.70;;;;;;;5.01;72.20;100231.81;5007378;28;20228;-66
2022/01/30 01:10:43;;;;;;;3.77;3.43;;;;;;;5.25;71.81;100231.59;5007415;28;20260;-66
2022/01/30 01:13:50;;;;;;;3.50;3.20;;;;;;;5.43;71.14;100238.03;5005935;28;20237;-66
2022/01/30 01:24:40;;;;;;;3.40;2.97;;;;;;;4.78;74.05;100223.88;4988063;28;20739;-66
2022/01/30 01:27:07;;;;;;;3.77;3.47;;;;;;;4.68;73.83;100217.66;4999012;28;20237;-65
2022/01/30 01:29:33;;;;;;;3.10;2.77;;;;;;;3.71;77.84;100227.75;5005928;28;20225;-68
2022/01/30 01:32:00;;;;;;;3.47;3.17;;;;;;;2.67;79.23;100197.53;5007638;28;20704;-66
2022/01/30 01:34:30;;;;;;;3.53;3.23;;;;;;;4.64;74.57;100216.22;4998377;28;20229;-66
2022/01/30 01:36:57;;;;;;;4.47;3.83;;;;;;;4.87;73.41;100209.94;5003409;28;20244;-65
2022/01/30 01:39:25;;;;;;;3.63;3.33;;;;;;;4.82;72.82;100209.47;5006120;28;20222;-65
2022/01/30 01:41:52;;;;;;;3.10;2.80;;;;;;;4.13;76.67;100257.13;4990045;28;20234;-68
2022/01/30 01:44:29;;;;;;;4.90;3.10;;;;;;;4.12;77.09;100251.00;4987154;28;20229;-68
2022/01/30 01:46:56;;;;;;;3.43;3.13;;;;;;;4.81;73.90;100236.03;4994817;28;20228;-65
2022/01/30 01:49:28;;;;;;;3.93;3.13;;;;;;;4.76;74.33;100246.13;5006823;28;21144;-67
2022/01/30 01:54:43;;;;;;;3.90;3.40;;;;;;;5.30;71.74;100237.34;4993092;28;20821;-65
2022/01/30 01:57:11;;;;;;;3.83;3.43;;;;;;;4.50;74.83;100235.78;4987250;28;20222;-67
2022/01/30 01:59:38;;;;;;;3.67;3.30;;;;;;;4.52;75.49;100258.50;4987270;28;20232;-68
2022/01/30 02:02:05;;;;;;;3.67;3.00;;;;;;;5.16;72.60;100235.84;4987397;28;20617;-68
2022/01/30 02:04:32;;;;;;;3.70;3.40;;;;;;;5.13;72.65;100237.91;4986340;28;20226;-66
2022/01/30 02:08:12;;;;;;;3.70;3.40;;;;;;;5.67;71.50;100252.84;4986879;28;20244;-65
2022/01/30 02:09:47;;;;;;;4.03;3.67;;;;;;;5.73;70.20;100228.50;4977797;28;20248;-66
2022/01/30 02:12:19;;;;;;;3.40;3.10;;;;;;;4.09;76.62;100269.72;4987413;28;20270;-67
2022/01/30 02:25:57;;;;;;;5.13;3.03;;;;;;;3.18;80.98;100254.50;4967019;28;20230;-67
2022/01/30 02:28:26;;;;;;;3.70;3.20;;;;;;;3.91;78.15;100237.66;4967364;28;20619;-68
2022/01/30 02:31:19;;;;;;;3.43;3.17;;;;;;;4.28;77.63;100226.91;4967310;28;20234;-67
2022/01/30 02:33:41;;;;;;;3.43;2.77;;;;;;;3.59;80.24;100250.63;4966419;28;20233;-67
2022/01/30 02:36:08;;;;;;;3.20;3.00;;;;;;;4.90;74.22;100187.69;4967234;28;20222;-67
2022/01/30 02:38:35;;;;;;;3.97;3.60;;;;;;;5.12;74.30;100201.84;4985665;28;20248;-68
2022/01/30 02:41:02;;;;;;;3.43;3.00;;;;;;;3.95;77.31;100215.34;4984419;28;20244;-68
2022/01/30 02:43:34;;;;;;;2.97;2.70;;;;;;;4.24;76.87;100220.19;4986777;28;20745;-67
2022/01/30 02:46:20;;;;;;;3.73;3.10;;;;;;;4.71;75.72;100220.88;4986507;28;20614;-68
2022/01/30 02:48:54;;;;;;;2.80;2.60;;;;;;;5.07;73.49;100191.63;4986458;28;20787;-68
2022/01/30 02:51:23;;;;;;;2.97;2.67;;;;;;;3.89;75.52;100178.03;4985617;28;20697;-68
2022/01/30 02:54:03;;;;;;;3.37;3.07;;;;;;;3.56;79.98;100245.59;4986540;28;20226;-68
2022/01/30 02:56:30;;;;;;;3.60;3.20;;;;;;;4.32;77.44;100224.88;5005456;28;20702;-67
2022/01/30 02:58:57;;;;;;;3.57;3.27;;;;;;;5.02;75.22;100217.59;5005878;28;20241;-67
2022/01/30 03:01:24;;;;;;;2.90;2.60;;;;;;;4.64;76.68;100226.78;5006394;28;20607;-67
2022/01/30 03:03:51;;;;;;;3.03;2.73;;;;;;;4.93;75.19;100215.72;5005767;28;20228;-68
2022/01/30 03:06:19;;;;;;;3.00;2.70;;;;;;;4.28;78.62;100232.19;5005874;28;20227;-67
2022/01/30 03:08:45;;;;;;;3.67;3.37;;;;;;;4.01;78.56;100237.78;5005716;28;20237;-68
2022/01/30 03:11:12;;;;;;;4.13;3.17;;;;;;;4.77;75.78;100210.78;5005661;28;20245;-68
2022/01/30 03:13:39;;;;;;;3.53;3.23;;;;;;;3.46;78.88;100229.63;5005683;28;20232;-68
2022/01/30 03:16:06;;;;;;;3.00;2.80;;;;;;;3.77;77.42;100225.50;5005666;28;20228;-67
2022/01/30 03:18:33;;;;;;;3.17;2.57;;;;;;;2.80;81.49;100255.47;5005893;28;20271;-68
2022/01/30 03:21:00;;;;;;;4.07;2.53;;;;;;;3.28;79.71;100252.88;5005008;28;20241;-67
2022/01/30 03:23:28;;;;;;;3.57;2.70;;;;;;;3.98;79.08;100267.91;5005943;28;20220;-67
2022/01/30 03:25:59;;;;;;;2.73;2.53;;;;;;;2.92;81.05;100272.22;4987214;28;20225;-67
2022/01/30 03:28:27;;;;;;;2.93;2.70;;;;;;;3.29;80.25;100275.66;4985822;28;20694;-67
2022/01/30 03:30:59;;;;;;;2.47;2.33;;;;;;;2.97;81.58;100281.47;4986057;28;20240;-67
2022/01/30 03:33:26;;;;;;;2.90;2.60;;;;;;;3.46;81.36;100292.09;4977440;28;20222;-67
2022/01/30 03:35:53;;;;;;;3.90;3.20;;;;;;;3.24;81.21;100265.44;4986420;28;20241;-67
2022/01/30 03:38:20;;;;;;;5.07;2.90;;;;;;;4.08;79.62;100275.13;4979309;28;20227;-67
2022/01/30 03:40:49;;;;;;;2.83;2.57;;;;;;;5.34;73.68;100233.47;4984487;28;20613;-67
2022/01/30 03:43:16;;;;;;;2.77;2.57;;;;;;;5.42;72.91;100214.34;4996651;28;20230;-67
2022/01/30 03:45:43;;;;;;;3.27;3.00;;;;;;;3.91;79.48;100272.00;5007843;28;20232;-67
2022/01/30 03:48:12;;;;;;;3.20;2.87;;;;;;;4.33;77.75;100251.16;5009744;28;20226;-67
2022/01/30 03:50:40;;;;;;;2.97;2.77;;;;;;;4.23;75.38;100225.56;5003699;28;20243;-67
2022/01/30 03:53:07;;;;;;;2.60;2.40;;;;;;;4.38;77.47;100249.97;4995329;28;20228;-67
2022/01/30 03:55:35;;;;;;;3.20;2.90;;;;;;;5.69;72.87;100247.41;4993727;28;20218;-67
2022/01/30 03:58:02;;;;;;;3.47;3.17;;;;;;;5.44;72.67;100237.03;4989801;28;20229;-67
2022/01/30 04:00:29;;;;;;;4.87;3.53;;;;;;;5.22;72.98;100240.63;4989383;28;20222;-67
2022/01/30 04:02:56;;;;;;;3.77;3.10;;;;;;;5.73;71.40;100246.19;4989010;28;20236;-67
2022/01/30 04:05:23;;;;;;;3.40;3.10;;;;;;;6.01;70.90;100255.31;4989963;28;20226;-67
2022/01/30 04:07:50;;;;;;;3.73;3.43;;;;;;;6.13;70.49;100259.53;4989163;28;20232;-67
2022/01/30 04:10:17;;;;;;;3.53;3.23;;;;;;;5.92;70.92;100250.75;5007871;28;20240;-66
2022/01/30 04:12:45;;;;;;;3.90;3.10;;;;;;;5.71;70.82;100233.06;5008848;28;20232;-67
2022/01/30 04:15:12;;;;;;;3.40;3.10;;;;;;;5.94;71.21;100267.38;5007593;28;20228;-67
2022/01/30 04:17:39;;;;;;;4.07;3.67;;;;;;;6.08;70.35;100258.28;5008708;28;20593;-67
2022/01/30 04:20:07;;;;;;;3.97;3.37;;;;;;;6.17;70.39;100260.97;5008220;28;20229;-67
2022/01/30 04:22:34;;;;;;;3.30;3.00;;;;;;;6.40;68.94;100256.38;5004305;28;20231;-67
2022/01/30 04:25:01;;;;;;;4.70;3.60;;;;;;;5.93;70.39;100261.22;4998520;28;20243;-67
2022/01/30 04:27:28;;;;;;;4.03;3.37;;;;;;;6.18;69.62;100270.59;4988222;28;20229;-67
2022/01/30 04:29:55;;;;;;;4.00;3.60;;;;;;;6.77;67.74;100287.63;4988872;28;20233;-67
2022/01/30 04:32:25;;;;;;;3.87;3.23;;;;;;;6.17;69.98;100273.38;4988581;28;20232;-67
2022/01/30 04:34:57;;;;;;;3.97;3.30;;;;;;;6.16;69.53;100271.72;4984507;28;20230;-67
2022/01/30 04:37:56;;;;;;;3.93;3.37;;;;;;;6.02;69.76;100263.13;4988156;28;20745;-67
2022/01/30 05:01:34;;;;;;;4.80;4.10;;;;;;;5.96;69.65;100268.91;4995922;28;20233;-67
2022/01/30 05:04:25;;;;;;;5.47;4.30;;;;;;;5.23;71.88;100268.75;5004539;28;20229;-67
2022/01/30 05:09:22;;;;;;;4.60;3.80;;;;;;;6.10;68.59;100275.69;4980400;28;20837;-67
2022/01/30 05:11:49;;;;;;;4.33;3.93;;;;;;;5.58;70.39;100270.34;5002820;28;20221;-67
2022/01/30 05:14:24;;;;;;;5.57;4.40;;;;;;;5.63;70.05;100278.72;5007079;28;20223;-67
2022/01/30 05:16:52;;;;;;;4.80;4.30;;;;;;;5.93;68.92;100277.13;4993942;28;20259;-67
2022/01/30 05:19:19;;;;;;;5.33;4.33;;;;;;;5.57;70.61;100281.03;4986349;28;20650;-67
2022/01/30 05:21:46;;;;;;;6.20;4.53;;;;;;;5.77;69.60;100274.09;4988746;28;20232;-67
2022/01/30 05:24:13;;;;;;;4.30;3.57;;;;;;;5.24;71.21;100266.94;4986643;28;20226;-67
2022/01/30 05:26:42;;;;;;;5.17;3.90;;;;;;;5.60;69.94;100276.31;4987738;28;20236;-67
2022/01/30 05:29:10;;;;;;;5.50;4.30;;;;;;;5.41;70.65;100271.72;4987180;28;20245;-67
2022/01/30 05:31:37;;;;;;;7.13;4.20;;;;;;;5.60;69.80;100286.09;4988370;28;20226;-67
2022/01/30 05:34:04;;;;;;;6.07;4.70;;;;;;;5.13;71.51;100286.34;4987575;28;20226;-67
2022/01/30 05:36:33;;;;;;;4.47;3.37;;;;;;;5.25;70.34;100271.28;4987548;28;20228;-67
2022/01/30 05:39:00;;;;;;;5.77;3.53;;;;;;;5.30;70.92;100297.38;4987602;28;20240;-67
2022/01/30 05:41:27;;;;;;;4.10;3.70;;;;;;;5.37;70.48;100295.91;4980796;28;20729;-67
2022/01/30 05:43:58;;;;;;;5.80;3.83;;;;;;;5.89;68.95;100317.25;4987803;28;20241;-67
2022/01/30 05:46:37;;;;;;;6.07;4.30;;;;;;;5.13;70.79;100306.66;4987261;28;20236;-67
2022/01/30 05:49:04;;;;;;;5.50;3.90;;;;;;;5.69;69.61;100335.59;4987311;28;20240;-67
2022/01/30 05:51:31;;;;;;;4.70;3.90;;;;;;;5.74;69.86;100338.72;4987463;28;20229;-67
2022/01/30 05:53:58;;;;;;;5.00;3.70;;;;;;;5.79;68.02;100309.22;4984764;28;20225;-67
2022/01/30 05:56:25;;;;;;;8.77;4.07;;;;;;;4.77;72.38;100332.34;4987192;28;20357;-67
2022/01/30 05:58:51;;;;;;;6.63;3.87;;;;;;;5.27;69.83;100320.44;4987396;28;20723;-67
2022/01/30 06:01:19;;;;;;;5.80;4.10;;;;;;;4.87;71.81;100336.81;4987396;28;20251;-67
2022/01/30 06:03:46;;;;;;;5.63;3.70;;;;;;;4.84;71.43;100325.66;4987008;28;20226;-67
2022/01/30 06:06:14;;;;;;;7.43;3.90;;;;;;;5.30;70.11;100335.22;4987421;28;20226;-67
2022/01/30 06:08:59;;;;;;;8.87;3.87;;;;;;;5.82;68.21;100328.34;4986201;28;21067;-67
2022/01/30 06:11:26;;;;;;;8.20;4.80;;;;;;;5.50;69.22;100323.03;4968493;28;20264;-67
2022/01/30 06:13:53;;;;;;;7.37;4.80;;;;;;;5.98;67.68;100349.06;4987002;28;20217;-67
2022/01/30 06:16:19;;;;;;;7.10;4.70;;;;;;;5.34;69.50;100346.41;4986553;28;20222;-67
2022/01/30 06:18:46;;;;;;;10.87;4.73;;;;;;;5.80;68.41;100353.25;4987326;28;20224;-67
2022/01/30 06:21:13;;;;;;;8.20;5.20;;;;;;;5.73;67.54;100349.41;4986585;28;20276;-67
2022/01/30 06:23:41;;;;;;;11.30;6.10;;;;;;;5.39;69.35;100371.53;4986735;28;20726;-67
2022/01/30 06:26:08;;;;;;;10.23;6.97;;;;;;;5.52;68.91;100367.91;4986394;28;20222;-67
2022/01/30 06:28:35;;;;;;;13.20;7.43;;;;;;;5.69;68.26;100372.66;4985027;28;20228;-67
2022/01/30 06:31:02;;;;;;;17.27;7.13;;;;;;;5.97;67.15;100375.72;4986695;28;20241;-67
2022/01/30 06:33:30;;;;;;;10.97;6.40;;;;;;;5.68;67.89;100367.50;4986144;28;20454;-67
2022/01/30 06:35:56;;;;;;;11.07;6.83;;;;;;;5.50;67.78;100357.44;4987145;28;20222;-67
2022/01/30 06:38:23;;;;;;;14.57;8.80;;;;;;;5.42;68.58;100383.69;4986494;28;20724;-67
2022/01/30 06:40:50;;;;;;;12.67;7.27;;;;;;;5.24;69.14;100378.03;5006901;22;20236;-67
2022/01/30 06:43:17;;;;;;;9.77;6.13;;;;;;;4.89;70.58;100390.41;4984475;28;20226;-67
2022/01/30 06:45:44;;;;;;;9.67;6.53;;;;;;;4.99;70.87;100414.38;4985734;28;20749;-67
2022/01/30 06:48:11;;;;;;;7.67;5.57;;;;;;;4.75;70.86;100393.25;4986676;28;20222;-67
2022/01/30 06:50:38;;;;;;;12.27;6.20;;;;;;;5.08;70.34;100405.69;4986489;28;20232;-67
2022/01/30 06:53:05;;;;;;;11.80;8.00;;;;;;;5.12;69.81;100394.88;4985628;28;20256;-69
2022/01/30 06:55:32;;;;;;;12.47;6.57;;;;;;;5.36;69.70;100421.19;4984515;28;20232;-68
2022/01/30 06:57:59;;;;;;;12.73;6.60;;;;;;;5.56;68.19;100403.72;4986608;28;20226;-68
2022/01/30 07:00:26;;;;;;;12.20;6.83;;;;;;;5.59;68.56;100412.25;4986251;28;20228;-67
2022/01/30 07:02:53;;;;;;;9.00;7.10;;;;;;;5.01;69.98;100411.59;4986280;28;20236;-68
2022/01/30 07:05:20;;;;;;;11.87;6.33;;;;;;;5.49;67.97;100403.38;4984349;28;20837;-67
2022/01/30 07:07:47;;;;;;;12.97;5.77;;;;;;;5.54;67.83;100414.44;4986152;28;21104;-67
2022/01/30 07:10:14;;;;;;;11.83;6.53;;;;;;;5.21;67.78;100392.38;4986257;28;20879;-67
2022/01/30 07:12:40;;;;;;;10.80;7.20;;;;;;;5.84;66.86;100434.13;4986502;28;20236;-67
2022/01/30 07:15:08;;;;;;;17.37;7.20;;;;;;;6.13;65.92;100444.13;4985249;28;20234;-67
2022/01/30 07:17:35;;;;;;;9.43;5.70;;;;;;;5.55;67.40;100423.25;4987038;28;20237;-68
2022/01/30 07:20:03;;;;;;;9.67;5.80;;;;;;;3.84;73.18;100479.25;4989434;28;20218;-67
2022/01/30 07:22:30;;;;;;;16.43;5.20;;;;;;;2.05;78.19;100506.28;4979670;28;20377;-67
2022/01/30 07:24:58;;;;;;;13.23;6.40;;;;;;;3.07;76.25;100537.34;4984725;28;20265;-67
2022/01/30 07:27:25;;;;;;;14.97;5.97;;;;;;;2.00;78.42;100524.16;4980701;28;20234;-67
2022/01/30 07:29:52;;;;;;;42.80;8.87;;;;;;;3.35;78.41;100564.47;4985231;28;20232;-67
2022/01/30 07:32:19;;;;;;;82.57;8.53;;;;;;;1.87;81.29;100545.13;4986754;28;20236;-66
2022/01/30 07:34:50;;;;;;;54.77;8.23;;;;;;;4.36;75.04;100511.56;4982946;28;20622;-67
2022/01/30 07:37:21;;;;;;;135.37;11.50;;;;;;;2.39;77.56;100507.56;4985128;28;20252;-67
2022/01/30 07:39:48;;;;;;;95.30;10.03;;;;;;;1.77;81.04;100529.09;4989691;28;20867;-67
2022/01/30 07:42:14;;;;;;;18.87;6.40;;;;;;;2.82;79.13;100551.31;4975641;28;20235;-67
2022/01/30 07:44:42;;;;;;;9.27;5.67;;;;;;;4.26;75.09;100500.00;4988574;28;20229;-67
2022/01/30 07:47:14;;;;;;;10.73;5.20;;;;;;;4.20;73.00;100479.31;4989870;28;20234;-67
2022/01/30 07:49:49;;;;;;;14.00;5.00;;;;;;;5.27;69.66;100473.88;4984567;28;20233;-67
2022/01/30 07:52:16;;;;;;;10.97;5.83;;;;;;;5.39;68.56;100461.47;4990033;28;20245;-67
2022/01/30 07:54:48;;;;;;;7.50;5.53;;;;;;;6.08;67.05;100472.81;4986528;28;20635;-66
2022/01/30 07:57:17;;;;;;;12.17;6.27;;;;;;;5.88;66.96;100451.41;4989618;28;20597;-67
2022/01/30 07:59:43;;;;;;;12.80;7.03;;;;;;;5.48;68.42;100470.53;4989464;28;20210;-66
2022/01/30 08:02:10;;;;;;;15.53;7.57;;;;;;;5.40;67.83;100457.03;4989771;28;20622;-67
2022/01/30 08:04:38;;;;;;;11.20;8.00;;;;;;;5.52;68.24;100476.41;4989096;28;20290;-66
2022/01/30 08:07:04;;;;;;;14.40;10.00;;;;;;;5.99;67.02;100479.69;4988930;28;20226;-68
2022/01/30 08:09:37;;;;;;;14.93;10.43;;;;;;;5.21;68.60;100471.72;4989676;28;20228;-67
2022/01/30 08:12:04;;;;;;;19.00;10.40;;;;;;;5.09;68.75;100456.78;4989739;28;20230;-66
2022/01/30 08:14:31;;;;;;;10.03;7.27;;;;;;;5.14;68.70;100469.66;4988740;28;20222;-66
2022/01/30 08:16:58;;;;;;;14.87;7.37;;;;;;;5.01;68.78;100475.91;4989620;28;20237;-67
2022/01/30 08:19:25;;;;;;;17.27;6.93;;;;;;;5.26;68.57;100480.13;4989177;28;20600;-67
2022/01/30 08:21:53;;;;;;;13.63;6.13;;;;;;;5.65;67.53;100485.06;4989489;28;20726;-67
2022/01/30 08:24:23;;;;;;;11.53;5.73;;;;;;;5.08;68.51;100468.34;4986204;28;20226;-66
2022/01/30 08:26:51;;;;;;;15.57;6.17;;;;;;;5.39;68.14;100487.09;4989431;28;20225;-66
2022/01/30 08:29:18;;;;;;;15.57;6.87;;;;;;;5.24;68.64;100484.72;4988946;28;20598;-67
2022/01/30 08:31:45;;;;;;;13.80;6.83;;;;;;;5.34;68.57;100499.84;4988181;28;20218;-66
2022/01/30 08:34:12;;;;;;;20.43;7.20;;;;;;;5.03;68.27;100478.44;4977318;28;20233;-67
2022/01/30 08:36:39;;;;;;;13.27;7.53;;;;;;;5.46;67.95;100509.47;4979964;28;20244;-67
2022/01/30 08:39:06;;;;;;;15.67;7.33;;;;;;;5.45;68.63;100511.28;4981718;28;20259;-67
2022/01/30 08:41:33;;;;;;;13.23;6.87;;;;;;;5.92;67.08;100528.81;4969926;28;20234;-67
2022/01/30 08:43:59;;;;;;;12.23;6.57;;;;;;;5.38;67.51;100504.78;4980446;28;20230;-67
2022/01/30 08:46:27;;;;;;;17.73;7.30;;;;;;;5.32;68.13;100505.25;4961198;28;20233;-66
2022/01/30 08:48:54;;;;;;;16.43;7.30;;;;;;;5.18;68.22;100487.81;4982757;28;20226;-67
2022/01/30 08:51:22;;;;;;;13.03;6.57;;;;;;;5.77;66.58;100517.66;4976104;28;20835;-67
2022/01/30 08:53:48;;;;;;;15.13;8.10;;;;;;;5.88;67.22;100525.56;4981175;28;20228;-67
2022/01/30 08:56:18;;;;;;;22.77;10.33;;;;;;;5.96;67.83;100523.16;4976642;28;20230;-66
2022/01/30 08:58:45;;;;;;;20.17;8.47;;;;;;;5.96;67.24;100517.03;4973727;28;20935;-66
2022/01/30 09:01:13;;;;;;;16.17;8.00;;;;;;;6.00;66.91;100524.59;4959869;28;20233;-67
2022/01/30 09:03:42;;;;;;;62.77;33.13;;;;;;;6.39;66.63;100530.31;4964412;28;20223;-68
2022/01/30 09:06:09;;;;;;;19.47;7.87;;;;;;;5.85;67.04;100502.00;4967335;28;20230;-68
2022/01/30 09:08:37;;;;;;;19.43;9.17;;;;;;;6.20;66.51;100515.06;4966372;28;20857;-76
2022/01/30 09:11:05;;;;;;;14.23;7.33;;;;;;;6.02;66.28;100504.13;4966114;28;20251;-68
2022/01/30 09:13:32;;;;;;;14.30;6.40;;;;;;;6.24;66.41;100517.44;4965695;28;20226;-69
2022/01/30 09:16:01;;;;;;;24.67;13.33;;;;;;;6.35;66.14;100504.19;4971150;28;20231;-68
2022/01/30 09:18:29;;;;;;;18.60;9.97;;;;;;;6.47;65.90;100529.66;4968661;28;20222;-68
2022/01/30 09:20:57;;;;;;;17.43;6.90;;;;;;;5.91;66.35;100498.84;4967638;28;20234;-68
2022/01/30 09:23:24;;;;;;;13.43;7.77;;;;;;;6.66;65.59;100518.41;4969146;28;20250;-68
2022/01/30 09:25:51;;;;;;;15.70;6.63;;;;;;;6.53;65.20;100509.78;4967697;28;20855;-68
2022/01/30 09:28:19;;;;;;;17.57;6.60;;;;;;;6.60;65.33;100526.03;4968163;28;20230;-67
2022/01/30 09:30:45;;;;;;;17.93;7.13;;;;;;;6.68;65.29;100505.84;4966373;28;20234;-67
2022/01/30 09:33:12;;;;;;;16.33;6.10;;;;;;;6.26;64.45;100489.84;4966563;28;20238;-68
2022/01/30 09:35:39;;;;;;;16.60;5.77;;;;;;;6.16;65.58;100524.19;4965943;28;21148;-67
2022/01/30 09:38:07;;;;;;;18.27;6.20;;;;;;;6.31;64.48;100516.81;4966475;28;20611;-67
2022/01/30 09:40:33;;;;;;;13.10;4.83;;;;;;;6.06;63.80;100502.06;4961387;28;20227;-68
2022/01/30 09:43:02;;;;;;;14.87;5.27;;;;;;;6.39;62.67;100513.56;4960373;28;20711;-68
2022/01/30 09:45:29;;;;;;;11.10;4.20;;;;;;;5.54;63.12;100516.81;4964457;28;20228;-68
2022/01/30 09:47:57;;;;;;;15.67;4.77;;;;;;;5.80;63.44;100525.31;4962043;28;20232;-68
2022/01/30 09:50:24;;;;;;;11.47;5.03;;;;;;;6.29;62.68;100528.50;4967782;28;20731;-68
2022/01/30 09:52:51;;;;;;;16.03;4.87;;;;;;;7.14;60.41;100520.53;4967301;28;20225;-68
2022/01/30 09:55:18;;;;;;;15.47;4.63;;;;;;;6.03;62.68;100499.66;4965776;28;20231;-69
2022/01/30 09:57:47;;;;;;;14.00;4.53;;;;;;;5.70;61.48;100503.19;4964886;28;20229;-68
2022/01/30 10:00:14;;;;;;;13.93;4.67;;;;;;;5.68;61.81;100500.66;4967577;28;20981;-68
2022/01/30 10:02:43;;;;;;;14.40;4.30;;;;;;;5.93;61.12;100517.25;4966879;28;20230;-68
2022/01/30 10:05:15;;;;;;;12.27;4.00;;;;;;;6.25;59.99;100519.94;4965198;28;20223;-68
2022/01/30 10:07:53;;;;;;;18.00;4.63;;;;;;;7.22;58.16;100535.81;4965244;28;20229;-68
2022/01/30 10:10:28;;;;;;;17.80;5.37;;;;;;;6.60;59.13;100492.38;4967493;28;20269;-68
2022/01/30 10:13:04;;;;;;;13.97;4.50;;;;;;;6.89;56.74;100512.97;4963835;28;20223;-69
2022/01/30 10:15:48;;;;;;;12.17;4.23;;;;;;;6.69;58.85;100547.28;4964049;28;20226;-68
2022/01/30 10:18:17;;;;;;;14.67;4.47;;;;;;;6.47;58.31;100512.94;4970011;28;20232;-68
2022/01/30 10:20:44;;;;;;;15.13;4.30;;;;;;;5.91;58.05;100514.72;4969083;28;21014;-68
2022/01/30 10:23:12;;;;;;;10.47;4.00;;;;;;;6.43;55.08;100533.53;4967590;28;20237;-69
2022/01/30 10:25:47;;;;;;;8.40;3.50;;;;;;;6.08;55.58;100502.78;4968686;28;20794;-69
2022/01/30 10:28:16;;;;;;;13.70;4.07;;;;;;;6.28;56.21;100510.94;4966740;28;20230;-68
2022/01/30 10:30:45;;;;;;;10.50;3.50;;;;;;;6.00;56.70;100492.81;4968964;28;20231;-68
2022/01/30 10:33:14;;;;;;;16.10;3.73;;;;;;;6.81;54.96;100528.69;4967268;28;20226;-68
2022/01/30 10:35:52;;;;;;;10.10;3.93;;;;;;;6.20;55.78;100495.63;4969940;28;20244;-68
2022/01/30 10:38:22;;;;;;;11.67;4.40;;;;;;;6.37;56.02;100507.53;4965776;28;20319;-68
2022/01/30 10:41:10;;;;;;;10.30;3.93;;;;;;;6.39;54.61;100532.13;4965177;28;20223;-68
2022/01/30 10:44:06;;;;;;;8.27;4.00;;;;;;;6.28;54.15;100487.06;4968470;28;20402;-68
2022/01/30 10:46:49;;;;;;;12.67;4.53;;;;;;;6.57;55.58;100498.78;4965214;28;20229;-68
2022/01/30 10:49:21;;;;;;;14.67;4.23;;;;;;;6.29;56.19;100492.25;4966444;28;20846;-68
2022/01/30 10:52:00;;;;;;;8.30;3.83;;;;;;;6.22;55.96;100496.34;4963386;28;20241;-68
2022/01/30 10:54:32;;;;;;;12.83;4.80;;;;;;;6.52;55.75;100513.38;4962191;28;20289;-68
2022/01/30 10:57:07;;;;;;;10.63;4.30;;;;;;;5.95;57.64;100481.75;4964711;28;20232;-68
2022/01/30 10:59:42;;;;;;;13.43;4.57;;;;;;;6.26;54.76;100496.97;4966944;28;20229;-68
2022/01/30 11:04:00;;;;;;;12.73;4.63;;;;;;;5.17;58.53;100573.41;5025160;28;21103;-66
2022/01/30 11:06:28;;;;;;;10.97;4.57;;;;;;;5.10;57.43;100540.47;5014687;28;20602;-68
2022/01/30 11:09:07;;;;;;;10.63;4.23;;;;;;;5.18;55.31;100531.94;5014385;28;20232;-66
2022/01/30 11:11:40;;;;;;;10.47;4.80;;;;;;;4.84;56.97;100540.59;5023734;28;20231;-66
2022/01/30 11:19:22;;;;;;;15.80;6.53;;;;;;;5.58;57.20;100521.75;5026357;28;20601;-67
2022/01/30 11:21:51;;;;;;;19.37;6.33;;;;;;;5.01;57.90;100518.22;5015505;28;20237;-68
2022/01/30 11:24:19;;;;;;;10.33;3.77;;;;;;;5.24;55.88;100534.97;5022288;28;20224;-68
2022/01/30 11:26:47;;;;;;;11.63;4.73;;;;;;;5.86;56.95;100539.91;5014283;28;20278;-68
2022/01/30 11:29:20;;;;;;;11.10;4.03;;;;;;;6.01;55.63;100526.28;5023203;28;20242;-68
2022/01/30 11:31:48;;;;;;;10.07;4.17;;;;;;;5.76;55.97;100515.97;5020009;28;20229;-68
2022/01/30 11:34:15;;;;;;;10.63;4.77;;;;;;;5.99;54.88;100504.38;5024130;28;20232;-68
2022/01/30 11:36:48;;;;;;;18.07;5.07;;;;;;;6.32;54.48;100523.84;5017502;28;20895;-68
2022/01/30 11:39:19;;;;;;;7.63;3.20;;;;;;;6.24;54.67;100517.44;5025021;28;20228;-68
2022/01/30 11:42:08;;;;;;;12.00;3.60;;;;;;;6.05;53.86;100500.38;5016523;28;20237;-68
2022/01/30 11:44:36;;;;;;;9.60;3.67;;;;;;;5.89;54.72;100506.06;5022206;28;20232;-68
2022/01/30 11:47:03;;;;;;;13.17;4.70;;;;;;;6.47;53.40;100534.13;5024316;28;20611;-68
2022/01/30 11:49:42;;;;;;;13.00;4.40;;;;;;;6.41;53.12;100519.59;5016753;28;20603;-68
2022/01/30 11:52:12;;;;;;;7.80;3.43;;;;;;;6.29;53.35;100508.16;5023825;28;20614;-68
2022/01/30 11:54:50;;;;;;;9.27;3.97;;;;;;;6.64;53.40;100503.56;5025402;28;20240;-68
2022/01/30 11:57:23;;;;;;;11.70;3.70;;;;;;;6.33;52.54;100488.41;5023233;28;20322;-68
2022/01/30 11:59:52;;;;;;;10.43;3.47;;;;;;;6.58;52.58;100512.91;5027759;28;20229;-68
2022/01/30 12:02:33;;;;;;;11.20;3.73;;;;;;;6.95;51.85;100517.75;5021846;28;20249;-68
2022/01/30 12:05:09;;;;;;;10.53;4.23;;;;;;;7.20;51.96;100505.03;5020874;28;20232;-68
2022/01/30 12:07:48;;;;;;;5.17;3.33;;;;;;;7.11;51.77;100469.53;5021468;28;20221;-68
2022/01/30 12:10:15;;;;;;;8.80;3.23;;;;;;;7.01;52.03;100472.13;5021190;28;20719;-68
2022/01/30 12:12:54;;;;;;;8.87;3.97;;;;;;;7.16;53.60;100477.13;5021745;28;20235;-68
2022/01/30 12:15:43;;;;;;;12.70;4.77;;;;;;;7.02;54.36;100480.94;5008166;28;20225;-68
2022/01/30 12:18:12;;;;;;;9.43;3.93;;;;;;;6.89;53.22;100478.50;5006737;28;20232;-68
2022/01/30 12:21:08;;;;;;;8.03;3.97;;;;;;;6.79;53.30;100488.19;5007845;28;20229;-68
2022/01/30 12:23:37;;;;;;;12.10;4.13;;;;;;;7.02;53.31;100496.88;5007369;28;20752;-68
2022/01/30 12:26:07;;;;;;;12.47;4.90;;;;;;;6.51;53.95;100466.66;5009006;28;20231;-68
2022/01/30 12:28:40;;;;;;;13.77;4.37;;;;;;;6.83;53.51;100463.94;5008065;28;20230;-68
2022/01/30 12:31:35;;;;;;;10.40;4.20;;;;;;;6.40;54.93;100478.13;5008558;28;20234;-69
2022/01/30 12:34:08;;;;;;;9.17;3.97;;;;;;;7.06;54.01;100463.78;5005744;28;20236;-69
2022/01/30 12:36:57;;;;;;;14.83;4.07;;;;;;;7.01;51.17;100458.88;5005698;28;20228;-68
2022/01/30 12:39:24;;;;;;;8.07;3.60;;;;;;;6.15;53.05;100421.00;5007000;28;20711;-69